createdAt,value
2017-07-28T08:02:10.791Z,67.73
2017-07-28T08:04:38.547Z,67.14
2017-07-28T08:07:06.284Z,66.70
2017-07-28T08:09:34.049Z,66.47
2017-07-28T08:12:01.745Z,66.21
2017-07-28T08:14:29.452Z,66.27
2017-07-28T08:16:57.144Z,66.35
2017-07-28T08:19:24.929Z,67.32
2017-07-28T08:21:52.623Z,66.93
2017-07-28T08:24:20.367Z,65.84
2017-07-28T08:26:48.071Z,66.38
2017-07-28T08:29:15.808Z,65.61
2017-07-28T08:31:43.513Z,66.60
2017-07-28T08:34:11.241Z,67.77
2017-07-28T08:36:38.992Z,66.08
2017-07-28T08:39:06.696Z,65.56
2017-07-28T08:41:34.403Z,66.10
2017-07-28T08:44:03.355Z,66.44
2017-07-28T08:46:33.245Z,65.99
2017-07-28T08:49:00.993Z,66.76
2017-07-28T08:51:28.692Z,66.21
2017-07-28T08:53:56.388Z,66.07
2017-07-28T08:56:24.123Z,67.53
2017-07-28T08:58:51.865Z,65.99
2017-07-28T09:01:19.555Z,66.53
2017-07-28T09:03:47.247Z,66.86
2017-07-28T09:06:14.944Z,65.69
2017-07-28T09:08:42.680Z,65.14
2017-07-28T09:11:10.380Z,64.67
2017-07-28T09:13:38.124Z,64.10
2017-07-28T09:16:05.835Z,64.33
2017-07-28T09:18:33.573Z,65.03
2017-07-28T09:21:01.264Z,64.50
2017-07-28T09:23:29.213Z,64.86
2017-07-28T09:25:57.005Z,63.78
2017-07-28T09:28:24.699Z,65.21
2017-07-28T09:30:52.395Z,64.09
2017-07-28T09:33:20.125Z,64.41
2017-07-28T09:35:47.856Z,64.87
2017-07-28T09:38:15.559Z,63.83
2017-07-28T09:40:43.260Z,63.47
2017-07-28T09:43:10.980Z,65.29
2017-07-28T09:45:38.736Z,63.83
2017-07-28T09:48:07.192Z,61.98
2017-07-28T09:50:34.923Z,63.08
2017-07-28T09:53:02.722Z,63.61
2017-07-28T09:55:30.419Z,61.06
2017-07-28T09:57:58.121Z,62.39
2017-07-28T10:00:25.828Z,61.87
2017-07-28T10:02:53.528Z,61.37
2017-07-28T10:05:21.362Z,61.06
2017-07-28T10:07:49.055Z,62.48
2017-07-28T10:10:16.796Z,61.52
2017-07-28T10:12:44.508Z,61.72
2017-07-28T10:15:12.218Z,61.85
2017-07-28T10:17:39.920Z,61.14
2017-07-28T10:20:07.667Z,60.51
2017-07-28T10:22:35.411Z,60.93
2017-07-28T10:25:03.116Z,60.31
2017-07-28T10:27:30.811Z,60.81
2017-07-28T10:29:58.503Z,58.78
2017-07-28T10:32:26.247Z,58.77
2017-07-28T10:34:53.943Z,58.47
2017-07-28T10:37:21.653Z,59.20
2017-07-28T10:39:49.491Z,59.56
2017-07-28T10:42:17.188Z,58.46
2017-07-28T10:44:44.893Z,57.77
2017-07-28T10:47:12.613Z,59.03
2017-07-28T10:49:40.339Z,58.98
2017-07-28T10:52:08.704Z,59.37
2017-07-28T10:54:36.465Z,59.43
2017-07-28T10:57:05.736Z,58.42
2017-07-28T10:59:33.441Z,57.89
2017-07-28T11:02:01.183Z,58.82
2017-07-28T11:04:28.945Z,58.75
2017-07-28T11:06:56.694Z,56.93
2017-07-28T11:09:24.451Z,57.94
2017-07-28T11:11:52.152Z,57.21
2017-07-28T11:14:19.879Z,56.87
2017-07-28T11:16:47.609Z,56.39
2017-07-28T11:19:15.347Z,57.70
2017-07-28T11:21:43.049Z,56.01
2017-07-28T11:24:10.859Z,56.78
2017-07-28T11:26:38.611Z,56.58
2017-07-28T11:29:06.312Z,57.47
2017-07-28T11:31:34.158Z,57.53
2017-07-28T11:34:02.109Z,56.06
2017-07-28T11:36:29.816Z,56.69
2017-07-28T11:38:57.511Z,57.44
2017-07-28T11:41:25.231Z,56.27
2017-07-28T11:43:53.080Z,54.92
2017-07-28T11:46:23.955Z,56.36
2017-07-28T11:48:51.669Z,56.00
2017-07-28T11:51:19.363Z,55.99
2017-07-28T11:53:47.069Z,55.72
2017-07-28T11:56:14.768Z,57.77
2017-07-28T11:58:42.460Z,57.30
2017-07-28T12:01:13.447Z,57.50
2017-07-28T12:03:41.152Z,57.06
2017-07-28T12:06:09.151Z,56.24
2017-07-28T12:08:36.856Z,56.61
2017-07-28T12:11:04.551Z,56.52
2017-07-28T12:13:32.251Z,56.26
2017-07-28T12:16:00.113Z,54.54
2017-07-28T12:18:27.866Z,55.30
2017-07-28T12:20:55.583Z,57.03
2017-07-28T12:23:23.305Z,55.72
2017-07-28T12:25:51.109Z,55.80
2017-07-28T12:28:18.818Z,55.60
2017-07-28T12:30:46.556Z,53.48
2017-07-28T12:33:14.265Z,55.13
2017-07-28T12:35:42.088Z,56.42
2017-07-28T12:38:10.637Z,55.34
2017-07-28T12:40:38.385Z,55.30
2017-07-28T12:43:06.092Z,54.61
2017-07-28T12:45:33.815Z,54.26
2017-07-28T12:48:01.605Z,55.42
2017-07-28T12:50:29.342Z,55.18
2017-07-28T12:52:58.141Z,54.71
2017-07-28T12:55:25.862Z,55.05
2017-07-28T12:57:53.563Z,54.90
2017-07-28T13:00:21.269Z,54.59
2017-07-28T13:02:49.008Z,52.75
2017-07-28T13:05:16.783Z,54.75
2017-07-28T13:07:44.509Z,54.74
2017-07-28T13:10:12.293Z,53.74
2017-07-28T13:12:40.067Z,53.80
2017-07-28T13:15:07.785Z,53.75
2017-07-28T13:17:35.497Z,53.53
2017-07-28T13:20:03.211Z,54.53
2017-07-28T13:22:30.945Z,54.28
2017-07-28T13:24:58.669Z,52.98
2017-07-28T13:27:26.374Z,54.18
2017-07-28T13:29:54.164Z,51.96
2017-07-28T13:32:21.904Z,53.51
2017-07-28T13:34:49.638Z,53.21
2017-07-28T13:37:17.365Z,52.56
2017-07-28T13:39:46.708Z,53.50
2017-07-28T13:42:14.424Z,54.00
2017-07-28T13:44:42.167Z,54.33
2017-07-28T13:47:09.899Z,53.26
2017-07-28T13:49:37.606Z,54.06
2017-07-28T13:52:05.318Z,53.89
2017-07-28T13:54:33.038Z,55.19
2017-07-28T13:57:00.798Z,55.29
2017-07-28T13:59:28.505Z,55.64
2017-07-28T14:01:56.261Z,54.74
2017-07-28T14:04:23.972Z,54.04
2017-07-28T14:06:51.710Z,53.13
2017-07-28T14:09:19.440Z,54.47
2017-07-28T14:11:47.237Z,53.29
2017-07-28T14:14:14.958Z,53.58
2017-07-28T14:16:42.664Z,52.96
2017-07-28T14:19:10.420Z,54.68
2017-07-28T14:21:38.130Z,54.64
2017-07-28T14:24:07.098Z,54.78
2017-07-28T14:26:34.814Z,54.06
2017-07-28T14:29:02.516Z,53.81
2017-07-28T14:31:30.277Z,54.74
2017-07-28T14:33:58.022Z,54.77
2017-07-28T14:36:25.741Z,56.45
2017-07-28T14:38:53.846Z,55.77
2017-07-28T14:41:21.585Z,55.25
2017-07-28T14:43:49.297Z,56.36
2017-07-28T14:46:17.113Z,54.92
2017-07-28T14:48:44.809Z,55.66
2017-07-28T14:51:12.552Z,56.61
2017-07-28T14:53:40.302Z,56.38
2017-07-28T14:56:09.137Z,56.89
2017-07-28T14:58:37.103Z,55.80
2017-07-28T15:01:04.805Z,56.37
2017-07-28T15:03:32.510Z,56.25
2017-07-28T15:06:00.224Z,56.14
2017-07-28T15:08:27.946Z,55.76
2017-07-28T15:10:55.697Z,55.79
2017-07-28T15:13:23.422Z,55.29
2017-07-28T15:15:51.172Z,55.38
2017-07-28T15:18:18.913Z,56.05
2017-07-28T15:20:47.797Z,55.28
2017-07-28T15:23:15.509Z,54.92
2017-07-28T15:25:43.213Z,54.75
2017-07-28T15:28:10.957Z,55.50
2017-07-28T15:30:38.800Z,55.27
2017-07-28T15:33:06.585Z,56.06
2017-07-28T15:35:34.345Z,55.22
2017-07-28T15:38:02.049Z,56.31
2017-07-28T15:40:29.760Z,55.99
2017-07-28T15:42:57.610Z,55.83
2017-07-28T15:45:25.320Z,56.37
2017-07-28T15:47:53.058Z,55.49
2017-07-28T15:50:20.813Z,57.02
2017-07-28T15:52:48.556Z,56.33
2017-07-28T15:55:16.298Z,55.95
2017-07-28T15:57:44.008Z,56.07
2017-07-28T16:00:11.884Z,55.53
2017-07-28T16:02:39.608Z,56.69
2017-07-28T16:05:07.357Z,57.08
2017-07-28T16:07:35.113Z,56.63
2017-07-28T16:10:02.818Z,56.68
2017-07-28T16:12:31.910Z,57.03
2017-07-28T16:14:59.608Z,57.40
2017-07-28T16:17:27.508Z,57.19
2017-07-28T16:19:55.210Z,57.00
2017-07-28T16:22:22.923Z,57.26
2017-07-28T16:24:50.634Z,57.57
2017-07-28T16:27:18.410Z,57.57
2017-07-28T16:29:46.158Z,56.88
2017-07-28T16:32:13.901Z,57.64
2017-07-28T16:34:41.641Z,57.42
2017-07-28T16:37:09.370Z,56.91
2017-07-28T16:39:37.069Z,57.49
2017-07-28T16:42:04.784Z,57.14
2017-07-28T16:44:32.535Z,57.25
2017-07-28T16:47:00.236Z,58.58
2017-07-28T16:49:27.993Z,58.36
2017-07-28T16:51:55.734Z,58.38
2017-07-28T16:54:23.434Z,58.22
2017-07-28T16:56:51.180Z,58.84
2017-07-28T16:59:18.912Z,58.92
2017-07-28T17:01:46.660Z,58.00
2017-07-28T17:04:14.411Z,58.92
2017-07-28T17:06:42.157Z,59.72
2017-07-28T17:09:09.863Z,60.15
2017-07-28T17:11:37.613Z,61.10
2017-07-28T17:14:05.360Z,60.62
2017-07-28T17:16:33.061Z,60.48
2017-07-28T17:19:00.813Z,59.96
2017-07-28T17:21:28.570Z,60.90
2017-07-28T17:23:56.835Z,61.23
2017-07-28T17:26:24.608Z,59.81
2017-07-28T17:28:52.328Z,60.07
2017-07-28T17:31:20.032Z,60.48
2017-07-28T17:33:47.733Z,59.96
2017-07-28T17:36:15.455Z,59.74
2017-07-28T17:38:43.202Z,59.40
2017-07-28T17:41:10.932Z,59.19
2017-07-28T17:43:38.789Z,58.95
2017-07-28T17:46:06.490Z,60.11
2017-07-28T17:48:34.192Z,59.39
2017-07-28T17:51:01.929Z,60.50
2017-07-28T17:53:29.632Z,60.03
2017-07-28T17:55:57.336Z,60.47
2017-07-28T17:58:25.098Z,61.37
2017-07-28T18:00:53.136Z,60.56
2017-07-28T18:03:20.838Z,60.93
2017-07-28T18:05:48.586Z,60.84
2017-07-28T18:08:16.294Z,61.67
2017-07-28T18:10:44.005Z,61.33
2017-07-28T18:13:11.748Z,61.40
2017-07-28T18:15:39.450Z,62.03
2017-07-28T18:18:07.161Z,62.46
2017-07-28T18:20:34.865Z,62.07
2017-07-28T18:23:02.571Z,62.08
2017-07-28T18:25:30.284Z,62.70
2017-07-28T18:27:57.985Z,62.78
2017-07-28T18:30:25.844Z,62.79
2017-07-28T18:32:53.554Z,62.97
2017-07-28T18:35:21.267Z,63.52
2017-07-28T18:37:48.981Z,63.58
2017-07-28T18:40:18.993Z,63.28
2017-07-28T18:42:46.982Z,63.31
2017-07-28T18:45:14.717Z,62.43
2017-07-28T18:47:42.429Z,62.96
2017-07-28T18:50:10.132Z,63.13
2017-07-28T18:52:37.832Z,63.46
2017-07-28T18:55:05.657Z,63.89
2017-07-28T18:57:33.359Z,63.60
2017-07-28T19:00:01.075Z,63.72
2017-07-28T19:02:28.780Z,63.08
2017-07-28T19:04:56.529Z,63.13
2017-07-28T19:07:24.229Z,64.21
2017-07-28T19:09:51.937Z,64.03
2017-07-28T19:12:19.640Z,63.86
2017-07-28T19:14:47.391Z,63.35
2017-07-28T19:17:15.097Z,64.45
2017-07-28T19:19:42.816Z,64.27
2017-07-28T19:22:10.512Z,64.91
2017-07-28T19:24:38.267Z,65.15
2017-07-28T19:27:06.014Z,64.56
2017-07-28T19:29:33.773Z,65.72
2017-07-28T19:32:01.489Z,64.50
2017-07-28T19:34:29.192Z,64.57
2017-07-28T19:36:56.950Z,64.84
2017-07-28T19:39:24.654Z,66.01
2017-07-28T19:41:52.381Z,66.28
2017-07-28T19:44:21.256Z,65.96
2017-07-28T19:46:55.233Z,66.32
2017-07-28T19:49:22.978Z,66.27
2017-07-28T19:51:50.693Z,66.10
2017-07-28T19:54:18.501Z,66.31
2017-07-28T19:56:46.305Z,66.44
2017-07-28T19:59:14.053Z,66.85
2017-07-28T20:01:41.821Z,66.82
2017-07-28T20:04:09.531Z,66.30
2017-07-28T20:06:37.242Z,66.78
2017-07-28T20:09:04.961Z,66.85
2017-07-28T20:11:32.689Z,66.43
2017-07-28T20:14:00.442Z,66.16
2017-07-28T20:19:21.765Z,66.75
2017-07-28T20:21:49.515Z,65.32
2017-07-28T20:24:17.236Z,66.55
2017-07-28T20:26:44.995Z,66.66
2017-07-28T20:29:12.748Z,66.43
2017-07-28T20:31:40.668Z,66.38
2017-07-28T20:34:08.399Z,66.84
2017-07-28T20:36:36.181Z,66.82
2017-07-28T20:39:03.905Z,67.04
2017-07-28T20:41:31.625Z,67.32
2017-07-28T20:43:59.359Z,67.52
2017-07-28T20:46:27.104Z,67.87
2017-07-28T20:48:54.808Z,68.24
2017-07-28T20:51:22.679Z,67.83
2017-07-28T20:53:50.437Z,68.28
2017-07-28T20:56:18.144Z,67.00
2017-07-28T20:58:45.857Z,67.69
2017-07-28T21:01:13.594Z,67.75
2017-07-28T21:03:41.437Z,67.57
2017-07-28T21:06:09.206Z,67.63
2017-07-28T21:08:37.014Z,67.86
2017-07-28T21:11:04.725Z,66.82
2017-07-28T21:13:38.692Z,67.19
2017-07-28T21:16:06.500Z,66.90
2017-07-28T21:18:34.858Z,67.63
2017-07-28T21:21:02.580Z,68.57
2017-07-28T21:23:30.468Z,69.41
2017-07-28T21:25:58.230Z,70.38
2017-07-28T21:28:25.986Z,69.98
2017-07-28T21:30:53.741Z,69.93
2017-07-28T21:33:21.604Z,70.59
2017-07-28T21:35:49.416Z,70.91
2017-07-28T21:38:17.128Z,71.32
2017-07-28T21:40:44.900Z,71.49
2017-07-28T21:43:13.034Z,70.46
2017-07-28T21:45:40.859Z,71.99
2017-07-28T21:48:08.601Z,72.74
2017-07-28T21:50:36.376Z,72.86
2017-07-28T21:53:04.088Z,73.26
2017-07-28T21:55:31.831Z,73.53
2017-07-28T21:57:59.594Z,73.70
2017-07-28T22:00:27.442Z,74.14
2017-07-28T22:02:55.202Z,74.68
2017-07-28T22:05:22.973Z,74.58
2017-07-28T22:07:50.728Z,75.17
2017-07-28T22:10:18.440Z,75.60
2017-07-28T22:12:46.209Z,75.96
2017-07-28T22:15:13.936Z,76.36
2017-07-28T22:17:41.656Z,76.91
2017-07-28T22:20:09.473Z,77.30
2017-07-28T22:22:37.261Z,77.60
2017-07-28T22:25:05.018Z,77.55
2017-07-28T22:27:32.732Z,77.62
2017-07-28T22:30:00.498Z,77.72
2017-07-28T22:32:28.309Z,78.09
2017-07-28T22:34:56.010Z,78.37
2017-07-28T22:37:23.766Z,78.71
2017-07-28T22:39:51.526Z,79.06
2017-07-28T22:42:19.231Z,78.92
2017-07-28T22:44:46.952Z,79.37
2017-07-28T22:47:14.656Z,78.82
2017-07-28T22:49:42.413Z,78.48
2017-07-28T22:52:10.225Z,78.87
2017-07-28T22:54:38.050Z,78.91
2017-07-28T22:57:08.734Z,79.60
2017-07-28T22:59:36.442Z,79.96
2017-07-28T23:02:04.426Z,80.22
2017-07-28T23:04:32.168Z,80.86
2017-07-28T23:06:59.925Z,81.32
2017-07-28T23:09:27.690Z,80.96
2017-07-28T23:11:55.399Z,80.34
2017-07-28T23:14:24.173Z,80.59
2017-07-28T23:16:51.877Z,80.98
2017-07-28T23:19:19.628Z,80.79
2017-07-28T23:21:47.538Z,81.18
2017-07-28T23:24:15.248Z,80.53
2017-07-28T23:26:42.977Z,80.90
2017-07-28T23:29:10.722Z,80.01
2017-07-28T23:31:38.497Z,80.26
2017-07-28T23:34:06.260Z,80.27
2017-07-28T23:36:34.017Z,80.86
2017-07-28T23:39:01.780Z,79.88
2017-07-28T23:41:29.509Z,81.37
2017-07-28T23:43:57.294Z,80.94
2017-07-28T23:46:25.009Z,81.47
2017-07-28T23:48:52.717Z,82.17
2017-07-28T23:51:20.424Z,82.46
2017-07-28T23:53:48.124Z,82.59
2017-07-28T23:56:15.872Z,82.39
2017-07-28T23:58:43.596Z,83.00
